Mahanoy Plane, Pennsylvania
Current Conditions -  °F | °C
As of 1:55 PM on Friday 24 Oct 2014 (Local Time) from KHZL Reporting Station
Scattered Clouds Scattered Clouds  
Wind Chill: 61°   Ceiling: Unl
Heat Index: 61°   Visibility: 10mi
Dew Point: 43°   Wind: 13mph
Humidity: 52%   Direction: 300°WNW
Pressure: 29.89"   Gusts: 21mph
Location:  40.79°N, 76.24°W
Report Text: KHZL 241755Z AUTO 30011G18KT 10SM SCT039 16/06 A2989 RMK AO2
Loading
Personal Weather Stations






























Interactive Weather Map
Tropical Storm Tracking
New forecast layout! Learn more

10-Day Weather Forecast

Advertisements
Track Severe Weather on mobile